createdAt,value
2024-02-18T00:03:24.486Z,9.80
2024-02-18T00:18:28.350Z,9.60
2024-02-18T00:33:31.257Z,9.30
2024-02-18T00:48:34.106Z,9.70
2024-02-18T01:03:36.735Z,9.60
2024-02-18T01:18:41.584Z,9.60
2024-02-18T01:33:46.926Z,9.50
2024-02-18T01:48:50.403Z,9.40
2024-02-18T02:03:57.113Z,9.20
2024-02-18T02:18:59.709Z,9.10
2024-02-18T02:34:04.844Z,9.30
2024-02-18T02:49:07.570Z,9.00
2024-02-18T03:04:10.780Z,8.50
2024-02-18T03:19:13.448Z,8.60
2024-02-18T03:34:16.695Z,8.60
2024-02-18T03:49:19.528Z,9.80
2024-02-18T04:04:22.469Z,8.50
2024-02-18T04:19:25.607Z,8.50
2024-02-18T04:34:28.161Z,8.50
2024-02-18T04:49:32.278Z,8.60
2024-02-18T05:04:35.190Z,8.80
2024-02-18T05:19:38.559Z,9.20
2024-02-18T05:34:41.199Z,9.20
2024-02-18T05:49:44.752Z,8.80
2024-02-18T06:04:48.553Z,8.70
2024-02-18T06:19:51.007Z,8.80
2024-02-18T06:34:53.574Z,8.60
2024-02-18T06:49:56.337Z,8.40
2024-02-18T07:04:59.058Z,8.20
2024-02-18T07:20:04.393Z,7.90
2024-02-18T07:35:07.433Z,7.80
2024-02-18T07:50:11.180Z,7.70
2024-02-18T08:05:13.787Z,8.00
2024-02-18T08:20:16.652Z,8.10
2024-02-18T08:35:22.087Z,8.10
2024-02-18T08:50:24.566Z,8.10
2024-02-18T09:05:27.354Z,8.20
2024-02-18T09:20:30.661Z,8.20
2024-02-18T09:35:35.007Z,8.20
2024-02-18T09:50:37.728Z,8.50
2024-02-18T10:05:41.016Z,8.40
2024-02-18T10:20:43.621Z,8.30
2024-02-18T10:35:52.535Z,8.50
2024-02-18T10:50:55.145Z,8.80
2024-02-18T11:06:01.365Z,8.90
2024-02-18T11:21:05.519Z,8.30
2024-02-18T11:36:16.473Z,8.40
2024-02-18T11:51:19.482Z,8.40
2024-02-18T12:06:24.625Z,7.80
2024-02-18T12:21:27.330Z,7.80
2024-02-18T12:36:29.862Z,7.80
2024-02-18T12:51:34.500Z,7.80
2024-02-18T13:06:37.122Z,7.80
2024-02-18T13:21:39.749Z,7.70
2024-02-18T13:36:43.047Z,7.80
2024-02-18T13:51:45.516Z,7.70
2024-02-18T14:06:48.030Z,7.80
2024-02-18T14:21:51.083Z,7.90
2024-02-18T14:36:53.607Z,8.00
2024-02-18T14:51:57.020Z,7.90
2024-02-18T15:07:01.141Z,8.00
2024-02-18T15:22:04.108Z,7.80
2024-02-18T15:37:07.520Z,7.80
2024-02-18T15:52:10.113Z,7.90
2024-02-18T16:07:14.710Z,8.00
2024-02-18T16:22:17.599Z,8.00
2024-02-18T16:37:20.073Z,8.10
2024-02-18T16:52:22.770Z,8.00
2024-02-18T17:07:25.506Z,8.20
2024-02-18T17:22:29.119Z,8.30
2024-02-18T17:37:31.781Z,8.50
2024-02-18T17:52:34.745Z,8.50
2024-02-18T18:07:37.675Z,8.80
2024-02-18T18:22:41.115Z,9.00
2024-02-18T18:37:43.512Z,8.90
2024-02-18T18:52:46.105Z,9.00
2024-02-18T19:07:50.495Z,9.20
2024-02-18T19:22:53.518Z,9.30
2024-02-18T19:37:56.032Z,9.50
2024-02-18T19:52:58.512Z,9.50
2024-02-18T20:08:01.046Z,9.40
2024-02-18T20:23:03.605Z,9.30
2024-02-18T20:38:06.166Z,8.90
2024-02-18T20:53:11.335Z,8.70
2024-02-18T21:08:14.079Z,8.70
2024-02-18T21:23:16.533Z,8.80
2024-02-18T21:38:18.946Z,8.60
2024-02-18T21:53:21.579Z,8.60
2024-02-18T22:08:24.853Z,8.70
2024-02-18T22:23:27.875Z,8.50
2024-02-18T22:38:30.420Z,8.30
2024-02-18T22:53:33.216Z,8.40
2024-02-18T23:08:38.872Z,8.40
2024-02-18T23:23:43.393Z,8.20
2024-02-18T23:38:45.809Z,8.20
2024-02-18T23:53:48.237Z,8.00
